Time;durP1;ratioP1;P1;durP2;ratioP2;P2;SDS_P1;SDS_P2;PMS_P1;PMS_P2;Temp;Humidity;BMP_temperature;BMP_pressure;BME280_temperature;BME280_humidity;BME280_pressure;Samples;Min_cycle;Max_cycle;Signal;HPM_P1;HPM_P2
2021/12/04 00:01:43;;;;;;;4.60;3.23;;;2.90;99.90;;;;;;5004849;28;20930;-64
2021/12/04 00:04:09;;;;;;;7.77;3.43;;;2.90;99.90;;;;;;4992272;28;20439;-64
2021/12/04 00:06:38;;;;;;;3.93;3.30;;;2.90;99.90;;;;;;4988560;28;20282;-63
2021/12/04 00:09:05;;;;;;;3.87;3.43;;;2.90;99.90;;;;;;4992706;28;20665;-64
2021/12/04 00:11:37;;;;;;;4.40;4.10;;;3.00;99.90;;;;;;5005136;28;20451;-64
2021/12/04 00:14:03;;;;;;;3.17;2.87;;;3.00;99.90;;;;;;4996966;28;20500;-63
2021/12/04 00:16:28;;;;;;;7.23;3.57;;;3.00;99.90;;;;;;4997006;28;20457;-65
2021/12/04 00:18:54;;;;;;;3.50;3.20;;;3.00;99.90;;;;;;5003054;28;20293;-63
2021/12/04 00:21:19;;;;;;;6.50;3.47;;;3.00;99.90;;;;;;4991928;28;20179;-64
2021/12/04 00:23:45;;;;;;;3.30;3.00;;;3.00;99.90;;;;;;5003347;28;20180;-65
2021/12/04 00:26:10;;;;;;;5.33;3.87;;;3.10;99.90;;;;;;4988899;28;20207;-64
2021/12/04 00:28:36;;;;;;;4.90;3.83;;;3.10;99.90;;;;;;4999676;28;20176;-64
2021/12/04 00:31:07;;;;;;;4.37;4.07;;;3.10;99.90;;;;;;4991720;28;20230;-65
2021/12/04 00:33:35;;;;;;;5.80;2.97;;;3.10;99.90;;;;;;4991600;28;20241;-64
2021/12/04 00:36:07;;;;;;;3.40;3.00;;;3.10;99.90;;;;;;4990528;28;20986;-64
2021/12/04 00:49:18;;;;;;;4.40;3.70;;;3.10;99.90;;;;;;4997977;28;20477;-64
2021/12/04 00:51:54;;;;;;;3.20;2.90;;;3.20;99.90;;;;;;4995922;28;20441;-64
2021/12/04 00:54:22;;;;;;;5.07;4.47;;;3.10;99.90;;;;;;5002871;28;20852;-64
2021/12/04 00:56:48;;;;;;;4.57;3.53;;;3.20;99.90;;;;;;4997479;28;20473;-63
2021/12/04 00:59:14;;;;;;;4.00;2.97;;;3.20;99.90;;;;;;5009797;28;20473;-63
2021/12/04 01:01:41;;;;;;;4.57;3.33;;;3.20;99.90;;;;;;5005056;28;20233;-63
2021/12/04 01:04:13;;;;;;;3.67;3.37;;;3.20;99.90;;;;;;5000414;28;20441;-64
2021/12/04 01:06:38;;;;;;;3.50;2.90;;;3.20;99.90;;;;;;4999132;28;20496;-63
2021/12/04 01:09:07;;;;;;;4.70;3.60;;;3.20;99.90;;;;;;4996242;28;20438;-64
2021/12/04 01:11:34;;;;;;;6.10;4.00;;;3.20;99.90;;;;;;4995491;28;20215;-65
2021/12/04 01:14:00;;;;;;;4.17;3.77;;;3.20;99.90;;;;;;5001303;28;20426;-64
2021/12/04 01:16:25;;;;;;;4.33;3.40;;;3.20;99.90;;;;;;5012863;28;20456;-63
2021/12/04 01:18:51;;;;;;;4.13;3.60;;;3.20;99.90;;;;;;4996722;28;20553;-63
2021/12/04 01:21:16;;;;;;;4.33;3.93;;;3.10;99.90;;;;;;5013910;28;20232;-63
2021/12/04 01:23:42;;;;;;;3.87;3.50;;;3.10;99.90;;;;;;5004596;28;20207;-64
2021/12/04 01:26:07;;;;;;;3.73;3.43;;;3.10;99.90;;;;;;5001506;28;20226;-64
2021/12/04 01:28:33;;;;;;;3.50;3.20;;;3.10;99.90;;;;;;5000845;28;20185;-64
2021/12/04 01:30:59;;;;;;;3.20;2.90;;;3.10;99.90;;;;;;4995051;28;20299;-64
2021/12/04 01:33:25;;;;;;;4.60;4.00;;;3.00;99.90;;;;;;4994869;28;20226;-63
2021/12/04 01:35:51;;;;;;;3.63;3.33;;;3.10;99.90;;;;;;4994553;28;20266;-62
2021/12/04 01:38:16;;;;;;;5.97;4.53;;;3.00;99.90;;;;;;4997007;28;20433;-63
2021/12/04 01:40:43;;;;;;;6.07;4.00;;;2.90;99.90;;;;;;4994969;28;20183;-63
2021/12/04 01:43:09;;;;;;;6.67;4.50;;;2.80;99.90;;;;;;4994061;28;20172;-63
2021/12/04 01:45:34;;;;;;;5.90;4.90;;;2.60;99.90;;;;;;5003478;28;20775;-64
2021/12/04 01:48:02;;;;;;;7.80;5.10;;;2.60;99.90;;;;;;4997321;28;20250;-63
2021/12/04 01:50:29;;;;;;;5.93;5.07;;;2.50;99.90;;;;;;5000225;28;20213;-63
2021/12/04 01:52:56;;;;;;;7.23;5.00;;;2.50;99.90;;;;;;5002070;28;20446;-63
2021/12/04 01:55:26;;;;;;;5.30;4.57;;;2.50;99.90;;;;;;4993981;28;20463;-63
2021/12/04 01:57:52;;;;;;;4.40;4.00;;;2.50;99.90;;;;;;4994277;28;20469;-61
2021/12/04 02:00:18;;;;;;;6.73;5.27;;;2.40;99.90;;;;;;4994744;28;20498;-63
2021/12/04 02:02:43;;;;;;;6.57;5.33;;;2.40;99.90;;;;;;5001610;28;20175;-64
2021/12/04 02:05:09;;;;;;;6.97;5.20;;;2.40;99.90;;;;;;4996669;28;20215;-63
2021/12/04 02:07:34;;;;;;;8.57;6.70;;;2.40;99.90;;;;;;4996994;28;20198;-63
2021/12/04 02:10:04;;;;;;;10.83;5.60;;;2.30;99.90;;;;;;5000785;28;20211;-64
2021/12/04 02:12:29;;;;;;;6.77;5.00;;;2.30;99.90;;;;;;5001100;28;20183;-62
2021/12/04 02:14:55;;;;;;;7.67;5.00;;;2.30;99.90;;;;;;5011655;28;20471;-63
2021/12/04 02:17:20;;;;;;;10.17;6.03;;;2.30;99.90;;;;;;5001704;28;20198;-62
2021/12/04 02:19:47;;;;;;;8.63;6.07;;;2.30;99.90;;;;;;4993958;28;20235;-63
2021/12/04 02:22:13;;;;;;;6.50;5.37;;;2.30;99.90;;;;;;4993759;28;20176;-63
2021/12/04 02:24:39;;;;;;;8.67;5.80;;;2.30;99.90;;;;;;5001140;28;20449;-63
2021/12/04 02:27:05;;;;;;;6.90;5.43;;;2.30;99.90;;;;;;5006147;28;20556;-63
2021/12/04 02:29:31;;;;;;;6.37;5.00;;;2.30;99.90;;;;;;4996087;28;20441;-63
2021/12/04 02:31:59;;;;;;;7.13;5.50;;;2.30;99.90;;;;;;5006999;28;20440;-63
2021/12/04 02:34:27;;;;;;;10.23;6.33;;;2.30;99.90;;;;;;4980972;28;20612;-63
2021/12/04 02:36:53;;;;;;;10.47;6.60;;;2.30;99.90;;;;;;4994214;28;20516;-63
2021/12/04 02:39:30;;;;;;;13.10;7.77;;;2.20;99.90;;;;;;5002034;28;20461;-63
2021/12/04 02:41:56;;;;;;;8.63;6.10;;;2.20;99.90;;;;;;5007224;28;20434;-63
2021/12/04 02:44:24;;;;;;;7.07;6.37;;;2.20;99.90;;;;;;4996580;28;20517;-62
2021/12/04 02:46:50;;;;;;;9.40;5.77;;;2.20;99.90;;;;;;5010569;28;20206;-61
2021/12/04 02:49:15;;;;;;;9.90;7.00;;;2.20;99.90;;;;;;5003833;28;20450;-64
2021/12/04 02:51:42;;;;;;;8.80;6.63;;;2.20;99.90;;;;;;5011217;28;21126;-63
2021/12/04 02:54:10;;;;;;;14.20;8.33;;;2.20;99.90;;;;;;5007130;28;20196;-61
2021/12/04 02:56:36;;;;;;;12.50;7.90;;;2.20;99.90;;;;;;4997693;28;20968;-63
2021/12/04 02:59:03;;;;;;;8.70;6.80;;;2.20;99.90;;;;;;5000058;28;20455;-63
2021/12/04 03:01:29;;;;;;;10.13;7.10;;;2.10;99.90;;;;;;5002057;28;20195;-64
2021/12/04 03:04:06;;;;;;;12.47;8.33;;;2.10;99.90;;;;;;5006203;28;20429;-63
2021/12/04 03:06:46;;;;;;;12.40;10.10;;;2.10;99.90;;;;;;4986581;28;20819;-63
2021/12/04 03:09:14;;;;;;;9.37;8.40;;;2.10;99.90;;;;;;5005143;28;20875;-63
2021/12/04 03:11:40;;;;;;;10.00;7.50;;;2.10;99.90;;;;;;4994298;28;20434;-63
2021/12/04 03:14:06;;;;;;;10.10;7.67;;;2.10;99.90;;;;;;4994153;28;20442;-63
2021/12/04 03:16:34;;;;;;;9.17;7.40;;;2.10;99.90;;;;;;4995038;28;20454;-63
2021/12/04 03:19:00;;;;;;;10.23;7.70;;;2.10;99.90;;;;;;5004778;28;20464;-64
2021/12/04 03:21:26;;;;;;;10.17;8.03;;;2.10;99.90;;;;;;4998071;28;20806;-64
2021/12/04 03:24:13;;;;;;;11.90;8.37;;;2.10;99.90;;;;;;4996504;28;20433;-64
2021/12/04 03:26:39;;;;;;;8.27;7.40;;;2.10;99.90;;;;;;4999987;28;20206;-61
2021/12/04 03:29:08;;;;;;;9.63;7.70;;;2.10;99.90;;;;;;5008597;28;20467;-63
2021/12/04 03:42:32;;;;;;;8.20;6.20;;;2.30;99.90;;;;;;5003334;28;20444;-62
2021/12/04 03:44:57;;;;;;;6.50;5.60;;;2.30;99.90;;;;;;4995191;28;20785;-63
2021/12/04 03:47:23;;;;;;;7.27;5.70;;;2.40;99.90;;;;;;4997838;28;20505;-63
2021/12/04 03:49:50;;;;;;;5.70;4.47;;;2.50;99.90;;;;;;4992931;28;20238;-64
2021/12/04 03:52:16;;;;;;;7.93;5.23;;;2.60;99.90;;;;;;4995874;28;20250;-63
2021/12/04 03:54:42;;;;;;;5.97;4.20;;;2.60;99.90;;;;;;4992468;28;20438;-63
2021/12/04 03:57:07;;;;;;;6.50;3.73;;;2.60;99.90;;;;;;4991848;28;20199;-63
2021/12/04 03:59:39;;;;;;;5.77;4.20;;;2.70;99.90;;;;;;4993428;28;20203;-63
2021/12/04 04:02:07;;;;;;;3.57;3.13;;;2.80;99.90;;;;;;4997358;28;20670;-63
2021/12/04 04:04:33;;;;;;;7.07;3.90;;;2.80;99.90;;;;;;4996714;28;20481;-63
2021/12/04 04:06:59;;;;;;;4.00;3.17;;;2.80;99.90;;;;;;5004533;28;20898;-63
2021/12/04 04:09:25;;;;;;;6.20;3.27;;;2.90;99.90;;;;;;4996720;28;20809;-63
2021/12/04 04:11:51;;;;;;;5.60;3.67;;;2.90;99.90;;;;;;5010644;28;20548;-64
2021/12/04 04:14:17;;;;;;;6.33;3.47;;;2.90;99.90;;;;;;5002286;28;20954;-63
2021/12/04 04:16:42;;;;;;;3.33;2.90;;;2.90;99.90;;;;;;5006638;28;20571;-63
2021/12/04 04:19:09;;;;;;;2.97;2.67;;;2.90;99.90;;;;;;4996848;28;20238;-63
2021/12/04 04:21:39;;;;;;;3.17;2.47;;;3.00;99.90;;;;;;4996909;28;20741;-63
2021/12/04 04:24:14;;;;;;;3.30;3.00;;;3.00;99.90;;;;;;4997286;28;20990;-63
2021/12/04 04:26:40;;;;;;;2.97;1.87;;;3.00;99.90;;;;;;5007670;28;20551;-64
2021/12/04 04:29:07;;;;;;;3.27;2.43;;;3.00;99.90;;;;;;4996262;28;20438;-64
2021/12/04 04:31:34;;;;;;;6.67;2.83;;;3.10;99.90;;;;;;5008491;28;20957;-63
2021/12/04 04:34:03;;;;;;;3.33;2.00;;;3.10;99.90;;;;;;5002409;28;20437;-65
2021/12/04 04:58:12;;;;;;;1.27;1.07;;;3.30;99.90;;;;;;5002988;28;20450;-63
2021/12/04 05:11:43;;;;;;;0.90;0.73;;;3.50;99.90;;;;;;4982307;28;20887;-63
2021/12/04 05:14:16;;;;;;;0.70;0.70;;;3.60;99.90;;;;;;5005324;28;20455;-63
2021/12/04 05:16:46;;;;;;;1.20;1.10;;;3.60;99.90;;;;;;5009604;28;20501;-63
2021/12/04 05:21:55;;;;;;;0.80;0.77;;;3.60;99.90;;;;;;4998346;28;20995;-64
2021/12/04 05:24:22;;;;;;;0.63;0.63;;;3.60;99.90;;;;;;4998073;28;20442;-63
2021/12/04 05:26:48;;;;;;;4.03;0.60;;;3.70;99.90;;;;;;4995488;28;20666;-63
2021/12/04 05:29:14;;;;;;;0.90;0.90;;;3.70;99.90;;;;;;5010157;28;20433;-64
2021/12/04 05:31:41;;;;;;;0.70;0.60;;;3.70;99.90;;;;;;5000764;28;20688;-65
2021/12/04 05:34:06;;;;;;;2.60;1.13;;;3.80;99.90;;;;;;4995871;28;20434;-65
2021/12/04 05:36:32;;;;;;;0.83;0.60;;;3.80;99.90;;;;;;4994627;28;20203;-63
2021/12/04 05:38:57;;;;;;;0.63;0.60;;;3.80;99.90;;;;;;4999739;28;20298;-64
2021/12/04 05:41:24;;;;;;;0.97;0.70;;;3.80;99.90;;;;;;5005755;28;20172;-64
2021/12/04 05:43:50;;;;;;;0.97;0.50;;;3.90;99.90;;;;;;4994810;28;20529;-64
2021/12/04 05:46:16;;;;;;;1.13;0.50;;;3.90;99.90;;;;;;5001866;28;20451;-65
2021/12/04 05:49:00;;;;;;;0.80;0.70;;;3.90;99.90;;;;;;4995891;28;20241;-64
2021/12/04 05:51:49;;;;;;;0.80;0.50;;;4.00;99.90;;;;;;4996304;28;20469;-65
2021/12/04 05:56:55;;;;;;;0.67;0.57;;;4.10;99.90;;;;;;4986901;28;20462;-65
2021/12/04 05:59:20;;;;;;;2.97;0.70;;;4.10;99.90;;;;;;4994615;28;20979;-64
2021/12/04 06:01:46;;;;;;;0.80;0.70;;;4.10;99.90;;;;;;5005435;28;20241;-64
2021/12/04 06:04:11;;;;;;;0.63;0.53;;;4.10;99.90;;;;;;5013868;28;20215;-65
2021/12/04 06:06:37;;;;;;;0.60;0.60;;;4.10;99.90;;;;;;4997340;28;20282;-64
2021/12/04 06:09:04;;;;;;;0.80;0.60;;;4.10;99.90;;;;;;5001712;28;20270;-65
2021/12/04 06:11:31;;;;;;;1.33;0.70;;;4.10;99.90;;;;;;5001857;28;20183;-65
2021/12/04 06:13:57;;;;;;;0.60;0.60;;;4.10;99.90;;;;;;4998563;28;20443;-65
2021/12/04 06:16:23;;;;;;;0.63;0.63;;;4.10;99.90;;;;;;5004382;28;20485;-65
2021/12/04 06:18:52;;;;;;;0.60;0.50;;;4.10;99.90;;;;;;4995328;28;20493;-64
2021/12/04 06:24:04;;;;;;;0.70;0.70;;;4.20;99.90;;;;;;5005538;28;20429;-64
2021/12/04 06:26:31;;;;;;;1.90;1.07;;;4.20;99.90;;;;;;4994843;28;20466;-65
2021/12/04 06:28:56;;;;;;;0.60;0.50;;;4.20;99.90;;;;;;4998238;28;20503;-64
2021/12/04 06:31:22;;;;;;;0.87;0.80;;;4.20;99.90;;;;;;5010770;28;20480;-65
2021/12/04 06:33:48;;;;;;;0.80;0.67;;;4.20;99.90;;;;;;4993715;28;20184;-65
2021/12/04 06:36:14;;;;;;;3.00;0.70;;;4.20;99.90;;;;;;4994698;28;20462;-65
2021/12/04 06:38:39;;;;;;;3.53;0.60;;;4.30;99.90;;;;;;4993385;28;20262;-65
2021/12/04 06:41:05;;;;;;;0.60;0.43;;;4.30;99.90;;;;;;4989988;28;20172;-64
2021/12/04 06:43:32;;;;;;;1.00;0.90;;;4.30;99.90;;;;;;4992335;28;20650;-63
2021/12/04 06:45:59;;;;;;;0.80;0.80;;;4.40;99.90;;;;;;4995342;28;20458;-64
2021/12/04 06:48:35;;;;;;;1.07;0.87;;;4.40;99.90;;;;;;5013147;28;20442;-65
2021/12/04 06:51:14;;;;;;;1.37;0.80;;;4.40;99.90;;;;;;5009165;28;20433;-65
2021/12/04 06:53:52;;;;;;;1.57;0.60;;;4.50;99.90;;;;;;5005096;28;20439;-62
2021/12/04 06:56:20;;;;;;;1.00;0.90;;;4.50;99.90;;;;;;4995653;28;20465;-65
2021/12/04 06:58:46;;;;;;;0.70;0.63;;;4.50;99.90;;;;;;4993305;28;20462;-64
2021/12/04 07:01:12;;;;;;;1.07;0.70;;;4.50;99.90;;;;;;4993565;28;20932;-66
2021/12/04 07:03:39;;;;;;;0.80;0.70;;;4.50;99.90;;;;;;4996301;28;20207;-65
2021/12/04 07:06:04;;;;;;;1.10;1.00;;;4.60;99.90;;;;;;4992957;28;20684;-65
2021/12/04 07:08:30;;;;;;;0.70;0.60;;;4.60;99.90;;;;;;5008076;28;20430;-65
2021/12/04 07:10:56;;;;;;;0.80;0.73;;;4.60;99.90;;;;;;5007214;28;20234;-65
2021/12/04 07:13:22;;;;;;;0.50;0.50;;;4.60;99.90;;;;;;4993339;28;20517;-64
2021/12/04 07:15:48;;;;;;;0.77;0.60;;;4.70;99.90;;;;;;4992084;28;20975;-66
2021/12/04 07:18:14;;;;;;;0.60;0.60;;;4.70;99.90;;;;;;5008243;28;20214;-65
2021/12/04 07:20:40;;;;;;;0.93;0.57;;;4.70;99.90;;;;;;5002203;28;20851;-65
2021/12/04 07:23:06;;;;;;;1.13;0.83;;;4.70;99.90;;;;;;5005581;28;20437;-65
2021/12/04 07:25:32;;;;;;;1.03;0.93;;;4.80;99.90;;;;;;4992192;28;20450;-65
2021/12/04 07:27:57;;;;;;;2.50;0.90;;;4.80;99.90;;;;;;4994467;28;20187;-65
2021/12/04 07:30:24;;;;;;;1.03;0.80;;;4.80;99.90;;;;;;4993249;28;20215;-64
2021/12/04 07:32:50;;;;;;;1.10;1.00;;;4.80;99.90;;;;;;4996911;28;20574;-64
2021/12/04 07:35:16;;;;;;;1.10;0.80;;;4.80;99.90;;;;;;5005807;28;20453;-64
2021/12/04 07:37:43;;;;;;;0.93;0.70;;;4.90;99.90;;;;;;4995126;28;20472;-63
2021/12/04 07:40:09;;;;;;;1.00;0.80;;;4.90;99.90;;;;;;4998834;28;20207;-64
2021/12/04 07:42:35;;;;;;;1.13;1.00;;;4.90;99.90;;;;;;4996652;28;20522;-65
2021/12/04 07:45:00;;;;;;;1.40;1.00;;;4.90;99.90;;;;;;4995343;28;20514;-62
2021/12/04 07:47:26;;;;;;;3.33;1.07;;;4.90;99.90;;;;;;4999947;28;20199;-65
2021/12/04 07:49:52;;;;;;;1.40;1.00;;;4.90;99.90;;;;;;4992061;28;20211;-65
2021/12/04 07:52:18;;;;;;;1.50;0.80;;;4.90;99.90;;;;;;5008337;28;20181;-65
2021/12/04 07:54:44;;;;;;;3.63;1.10;;;4.90;99.90;;;;;;4992592;28;20423;-65
2021/12/04 07:57:10;;;;;;;2.40;1.57;;;4.90;99.90;;;;;;4992380;28;20187;-65
2021/12/04 07:59:35;;;;;;;2.67;1.43;;;4.90;99.90;;;;;;4989909;28;20964;-66
2021/12/04 08:02:01;;;;;;;1.57;1.43;;;4.90;99.90;;;;;;4999891;28;20640;-65
2021/12/04 08:04:27;;;;;;;2.77;0.90;;;5.00;99.90;;;;;;5011894;28;20179;-65
2021/12/04 08:06:53;;;;;;;1.23;1.07;;;5.00;99.90;;;;;;4994360;28;20204;-63
2021/12/04 08:09:19;;;;;;;1.73;1.47;;;5.00;99.90;;;;;;5006969;28;20191;-65
2021/12/04 08:11:46;;;;;;;2.03;1.13;;;5.10;99.90;;;;;;4993217;28;20445;-64
2021/12/04 08:14:12;;;;;;;1.00;0.90;;;5.10;99.90;;;;;;4990127;28;20175;-65
2021/12/04 08:16:38;;;;;;;1.20;1.10;;;5.10;99.90;;;;;;4997484;28;20468;-64
2021/12/04 08:19:03;;;;;;;1.13;1.03;;;5.10;99.90;;;;;;4988061;28;20249;-64
2021/12/04 08:21:29;;;;;;;2.83;1.57;;;5.20;99.90;;;;;;4996441;28;20434;-67
2021/12/04 08:23:54;;;;;;;1.30;1.20;;;5.30;99.90;;;;;;4991287;28;20271;-67
2021/12/04 08:26:21;;;;;;;1.20;1.10;;;5.30;99.90;;;;;;4989562;28;20212;-66
2021/12/04 08:28:46;;;;;;;1.93;1.30;;;5.30;99.90;;;;;;4992209;28;20606;-66
2021/12/04 08:31:12;;;;;;;2.37;1.50;;;5.40;99.90;;;;;;5003823;28;20502;-67
2021/12/04 08:33:38;;;;;;;2.10;1.90;;;5.40;99.90;;;;;;5004188;28;20478;-67
2021/12/04 08:36:04;;;;;;;1.43;1.33;;;5.40;99.90;;;;;;4996871;28;20458;-68
2021/12/04 08:38:32;;;;;;;3.90;1.63;;;5.50;99.90;;;;;;5001240;28;20209;-68
2021/12/04 08:40:58;;;;;;;2.87;1.87;;;5.60;99.90;;;;;;5002553;28;20550;-68
2021/12/04 08:43:24;;;;;;;1.27;1.00;;;5.60;99.90;;;;;;4996769;28;20437;-68
2021/12/04 08:45:50;;;;;;;1.83;1.73;;;5.70;99.90;;;;;;4993711;28;20537;-70
2021/12/04 08:48:15;;;;;;;4.20;2.20;;;5.70;99.90;;;;;;4991747;28;20184;-69
2021/12/04 08:50:42;;;;;;;3.07;2.23;;;5.70;99.90;;;;;;4992325;28;20227;-69
2021/12/04 08:53:08;;;;;;;2.00;1.67;;;5.80;99.90;;;;;;4992903;28;20192;-69
2021/12/04 08:55:36;;;;;;;1.40;1.30;;;5.70;99.90;;;;;;5001222;28;20522;-69
2021/12/04 08:58:03;;;;;;;1.50;1.40;;;5.70;99.90;;;;;;4999991;28;20883;-69
2021/12/04 09:00:39;;;;;;;1.63;1.40;;;5.70;99.90;;;;;;5009480;28;20469;-69
2021/12/04 09:03:07;;;;;;;3.47;1.57;;;5.70;99.90;;;;;;4994670;28;20847;-68
2021/12/04 09:05:35;;;;;;;2.10;1.47;;;5.80;99.90;;;;;;4995299;28;20442;-68
2021/12/04 09:08:02;;;;;;;1.53;1.03;;;5.80;99.90;;;;;;4995278;28;20803;-65
2021/12/04 09:10:28;;;;;;;1.70;1.60;;;5.90;99.90;;;;;;4995059;28;20434;-66
2021/12/04 09:12:55;;;;;;;4.77;1.70;;;5.90;99.90;;;;;;4995652;28;20441;-67
2021/12/04 09:15:27;;;;;;;1.67;1.57;;;5.90;99.90;;;;;;5001910;28;20186;-67
2021/12/04 09:17:53;;;;;;;1.10;1.00;;;5.90;99.90;;;;;;4996808;28;20465;-68
2021/12/04 09:20:18;;;;;;;1.30;1.20;;;6.00;99.90;;;;;;5005057;28;20951;-66
2021/12/04 09:22:45;;;;;;;4.60;1.47;;;6.00;99.90;;;;;;4995290;28;20179;-67
2021/12/04 09:25:16;;;;;;;1.23;1.10;;;6.00;99.90;;;;;;4999700;28;20183;-66
2021/12/04 10:00:27;;;;;;;2.70;1.23;;;6.80;99.90;;;;;;5001875;28;20501;-68
2021/12/04 10:21:33;;;;;;;1.20;1.10;;;7.80;99.90;;;;;;4984382;28;20445;-67
2021/12/04 10:24:26;;;;;;;5.07;1.40;;;8.00;99.90;;;;;;5002827;28;20452;-67
2021/12/04 10:32:26;;;;;;;2.10;1.00;;;8.40;99.90;;;;;;5006481;28;20437;-67
2021/12/04 10:35:04;;;;;;;1.57;1.10;;;8.30;99.90;;;;;;4996879;28;20445;-67
2021/12/04 10:37:31;;;;;;;1.87;1.13;;;8.30;99.90;;;;;;5003451;28;20496;-67
2021/12/04 10:40:18;;;;;;;1.60;0.73;;;8.30;99.90;;;;;;5004343;28;20498;-67
2021/12/04 10:42:53;;;;;;;1.40;1.13;;;8.30;99.90;;;;;;5008003;28;20466;-66
2021/12/04 10:45:32;;;;;;;1.67;1.30;;;8.30;99.90;;;;;;5001019;28;20491;-67
2021/12/04 10:48:00;;;;;;;1.47;1.17;;;8.40;99.90;;;;;;5003002;28;20485;-66
2021/12/04 10:51:04;;;;;;;4.47;2.03;;;8.50;99.90;;;;;;4994781;28;20518;-67
2021/12/04 10:53:34;;;;;;;4.53;2.93;;;8.50;99.90;;;;;;4978506;28;20434;-67
2021/12/04 11:04:38;;;;;;;1.20;1.10;;;8.80;99.90;;;;;;5006132;28;20675;-66
2021/12/04 11:26:56;;;;;;;1.07;1.07;;;9.10;99.90;;;;;;4992453;28;20497;-66
2021/12/04 11:42:53;;;;;;;1.03;0.83;;;9.20;99.90;;;;;;5012334;28;20943;-65
2021/12/04 11:45:26;;;;;;;1.10;1.00;;;9.10;99.90;;;;;;5002732;28;20430;-65
2021/12/04 11:47:58;;;;;;;1.10;0.90;;;9.10;99.90;;;;;;5000135;28;20441;-65
2021/12/04 11:50:31;;;;;;;1.23;1.10;;;9.00;99.90;;;;;;4981945;28;20876;-64
2021/12/04 11:53:01;;;;;;;4.00;2.00;;;9.00;99.90;;;;;;5007472;28;20428;-65
2021/12/04 11:55:29;;;;;;;1.53;1.30;;;9.00;99.90;;;;;;4992439;28;20470;-64
2021/12/04 11:57:55;;;;;;;1.93;1.23;;;9.10;99.90;;;;;;5000052;28;20426;-64
2021/12/04 12:00:33;;;;;;;1.20;1.00;;;9.10;99.90;;;;;;4993071;28;20463;-65
2021/12/04 12:03:09;;;;;;;1.47;1.17;;;9.10;99.90;;;;;;4988720;28;20485;-65
2021/12/04 12:05:55;;;;;;;0.73;0.73;;;9.20;99.90;;;;;;5005342;28;20429;-66
2021/12/04 12:08:32;;;;;;;1.10;1.00;;;9.20;99.90;;;;;;4997864;28;20430;-65
2021/12/04 12:11:06;;;;;;;1.67;0.80;;;9.30;99.90;;;;;;4998082;28;20858;-65
2021/12/04 12:13:41;;;;;;;1.27;1.03;;;9.30;99.90;;;;;;5003841;28;20431;-64
2021/12/04 12:16:12;;;;;;;0.70;0.70;;;9.20;99.90;;;;;;5002525;28;20523;-65
2021/12/04 12:19:00;;;;;;;1.90;1.30;;;9.20;99.90;;;;;;4999328;28;20530;-65
2021/12/04 12:21:46;;;;;;;1.50;0.80;;;9.00;99.90;;;;;;4994335;28;20433;-66
2021/12/04 12:33:08;;;;;;;3.83;1.43;;;9.00;99.90;;;;;;4991081;28;20553;-66
2021/12/04 12:38:52;;;;;;;1.23;1.13;;;9.10;99.90;;;;;;5013244;28;20433;-65
2021/12/04 12:41:23;;;;;;;1.83;1.43;;;9.00;99.90;;;;;;5014477;28;20429;-65
2021/12/04 12:43:57;;;;;;;0.60;0.60;;;9.00;99.90;;;;;;5002835;28;20442;-65
2021/12/04 12:46:40;;;;;;;1.07;0.97;;;9.00;99.90;;;;;;5001230;28;21017;-65
2021/12/04 12:49:34;;;;;;;8.57;3.10;;;9.00;99.90;;;;;;4995736;28;20443;-65
2021/12/04 12:52:12;;;;;;;1.50;1.03;;;9.00;99.90;;;;;;5006184;28;20440;-65
2021/12/04 12:54:54;;;;;;;1.40;1.30;;;9.00;99.90;;;;;;5015179;28;20433;-65
2021/12/04 12:57:30;;;;;;;1.47;1.10;;;9.00;99.90;;;;;;4996447;28;20454;-66
2021/12/04 13:11:50;;;;;;;1.30;1.20;;;8.90;99.90;;;;;;5004242;28;20461;-65
2021/12/04 13:14:18;;;;;;;1.63;1.53;;;8.90;99.90;;;;;;5008198;28;20479;-65
2021/12/04 13:16:56;;;;;;;1.13;1.03;;;8.80;99.90;;;;;;4998395;28;20450;-66
2021/12/04 13:19:23;;;;;;;2.20;1.30;;;8.80;99.90;;;;;;4998404;28;20465;-65
2021/12/04 13:21:53;;;;;;;1.40;1.10;;;8.80;99.90;;;;;;4994447;28;20445;-65
2021/12/04 13:24:23;;;;;;;1.43;1.33;;;8.80;99.90;;;;;;5009186;28;20425;-65
2021/12/04 13:26:52;;;;;;;2.60;2.13;;;8.80;99.90;;;;;;5012540;28;21080;-66
2021/12/04 13:29:21;;;;;;;1.10;1.00;;;8.80;99.90;;;;;;5008736;28;20475;-66
2021/12/04 13:31:47;;;;;;;1.33;1.00;;;8.80;99.90;;;;;;5004740;28;20441;-66
2021/12/04 13:34:20;;;;;;;1.40;1.30;;;8.80;99.90;;;;;;5009433;28;20821;-66
2021/12/04 13:36:46;;;;;;;1.57;1.40;;;8.80;99.90;;;;;;5012358;28;20198;-66
2021/12/04 13:39:15;;;;;;;1.40;1.30;;;8.80;99.90;;;;;;4998705;28;20465;-65
2021/12/04 13:41:43;;;;;;;2.00;1.20;;;8.80;99.90;;;;;;5006086;28;20566;-66
2021/12/04 13:44:11;;;;;;;1.67;1.57;;;8.80;99.90;;;;;;5006747;28;20477;-66
2021/12/04 13:46:44;;;;;;;1.13;1.00;;;8.80;99.90;;;;;;5001458;28;20474;-66
2021/12/04 13:49:12;;;;;;;2.40;1.33;;;8.80;99.90;;;;;;4982660;28;20450;-66
2021/12/04 13:51:38;;;;;;;2.80;1.60;;;8.80;99.90;;;;;;4996880;28;20442;-67
2021/12/04 13:54:04;;;;;;;1.80;1.50;;;8.70;99.90;;;;;;4989461;28;20473;-67
2021/12/04 13:56:31;;;;;;;1.70;1.60;;;8.70;99.90;;;;;;4990936;28;20458;-67
2021/12/04 13:59:00;;;;;;;1.53;1.33;;;8.70;99.90;;;;;;5013268;28;20959;-65
2021/12/04 14:01:29;;;;;;;1.53;0.80;;;8.70;99.90;;;;;;5007207;28;20419;-66
2021/12/04 14:04:00;;;;;;;2.03;1.83;;;8.60;99.90;;;;;;4995753;28;20529;-66
2021/12/04 14:06:27;;;;;;;1.57;1.47;;;8.60;99.90;;;;;;4995018;28;20885;-66
2021/12/04 14:09:02;;;;;;;2.03;1.93;;;8.50;99.90;;;;;;5006077;28;20427;-66
2021/12/04 14:11:39;;;;;;;1.83;1.23;;;8.50;99.90;;;;;;4995185;28;20450;-66
2021/12/04 14:14:20;;;;;;;2.60;1.90;;;8.60;99.90;;;;;;4997780;28;20507;-66
2021/12/04 14:16:52;;;;;;;2.80;2.57;;;8.60;99.90;;;;;;5004438;28;20454;-66
2021/12/04 14:19:21;;;;;;;2.50;1.70;;;8.60;99.90;;;;;;5007288;28;20464;-66
2021/12/04 14:22:09;;;;;;;3.00;2.10;;;8.50;99.90;;;;;;5009506;28;20430;-67
2021/12/04 14:24:48;;;;;;;1.57;1.40;;;8.60;99.90;;;;;;5005298;28;20434;-68
2021/12/04 14:27:25;;;;;;;1.37;1.27;;;8.60;99.90;;;;;;5000825;28;20832;-67
2021/12/04 14:30:05;;;;;;;1.43;1.30;;;8.60;99.90;;;;;;5010388;28;20798;-65
2021/12/04 14:32:33;;;;;;;3.20;1.83;;;8.60;99.90;;;;;;4993963;28;20434;-69
2021/12/04 14:35:07;;;;;;;3.47;2.57;;;8.50;99.90;;;;;;4999242;28;20430;-67
2021/12/04 14:37:41;;;;;;;1.50;1.40;;;8.40;99.90;;;;;;4992108;28;20592;-66
2021/12/04 14:40:12;;;;;;;3.23;2.93;;;8.50;99.90;;;;;;4999106;28;20477;-66
2021/12/04 14:42:38;;;;;;;2.03;1.83;;;8.50;99.90;;;;;;4992755;28;20526;-67
2021/12/04 14:45:20;;;;;;;2.40;2.20;;;8.40;99.90;;;;;;4991357;28;20446;-67
2021/12/04 14:47:56;;;;;;;2.53;1.40;;;8.40;99.90;;;;;;4981975;28;20433;-67
2021/12/04 14:50:23;;;;;;;1.60;1.50;;;8.40;99.90;;;;;;5004231;28;20462;-65
2021/12/04 14:52:51;;;;;;;2.70;1.60;;;8.40;99.90;;;;;;4994478;28;20446;-67
2021/12/04 14:55:23;;;;;;;2.83;1.83;;;8.30;99.90;;;;;;5004614;28;20885;-67
2021/12/04 14:57:50;;;;;;;4.57;1.73;;;8.30;99.90;;;;;;4993387;28;20439;-66
2021/12/04 15:00:25;;;;;;;1.40;1.30;;;8.30;99.90;;;;;;4998624;28;20470;-66
2021/12/04 15:02:52;;;;;;;1.60;1.50;;;8.30;99.90;;;;;;4996829;28;20443;-66
2021/12/04 15:05:38;;;;;;;4.87;1.90;;;8.30;99.90;;;;;;4994247;28;20480;-66
2021/12/04 15:08:04;;;;;;;2.30;2.10;;;8.30;99.90;;;;;;4999807;28;20893;-66
2021/12/04 15:10:30;;;;;;;5.53;1.53;;;8.30;99.90;;;;;;5009939;28;20472;-65
2021/12/04 15:12:58;;;;;;;2.20;1.87;;;8.30;99.90;;;;;;4993555;28;20227;-65
2021/12/04 15:15:29;;;;;;;2.83;2.40;;;8.30;99.90;;;;;;5004582;28;20476;-66
2021/12/04 15:17:58;;;;;;;2.47;1.93;;;8.30;99.90;;;;;;4999481;28;20445;-65
2021/12/04 15:20:33;;;;;;;3.10;1.93;;;8.30;99.90;;;;;;5012375;28;20495;-64
2021/12/04 15:23:04;;;;;;;2.80;1.97;;;8.30;99.90;;;;;;5003353;28;20529;-66
2021/12/04 15:25:34;;;;;;;2.80;1.30;;;8.30;99.90;;;;;;5009096;28;20449;-66
2021/12/04 15:28:03;;;;;;;1.97;1.40;;;8.30;99.90;;;;;;4999472;28;20512;-64
2021/12/04 15:30:28;;;;;;;2.17;1.97;;;8.20;99.90;;;;;;4995933;28;20464;-67
2021/12/04 15:32:54;;;;;;;2.40;2.20;;;8.20;99.90;;;;;;4998743;28;20443;-74
2021/12/04 15:35:32;;;;;;;1.80;1.57;;;8.20;99.90;;;;;;5008095;28;20175;-69
2021/12/04 15:38:16;;;;;;;2.93;2.30;;;8.20;99.90;;;;;;4993425;28;20185;-68
2021/12/04 15:40:56;;;;;;;3.47;2.50;;;8.30;99.90;;;;;;5001372;28;20517;-69
2021/12/04 15:43:32;;;;;;;7.20;2.90;;;8.20;99.90;;;;;;4996122;28;20923;-70
2021/12/04 15:54:10;;;;;;;7.50;2.40;;;8.30;99.90;;;;;;4982372;28;20464;-71
2021/12/04 15:56:46;;;;;;;1.83;1.43;;;8.30;99.90;;;;;;4984416;28;20529;-71
2021/12/04 15:59:18;;;;;;;1.70;1.57;;;8.30;99.90;;;;;;4988585;28;20557;-71
2021/12/04 16:01:44;;;;;;;2.43;1.33;;;8.30;99.90;;;;;;4988113;28;20438;-71
2021/12/04 16:04:27;;;;;;;1.67;1.57;;;8.30;99.90;;;;;;4988888;28;20446;-72
2021/12/04 16:06:55;;;;;;;2.50;1.20;;;8.30;99.90;;;;;;4999840;28;20465;-71
2021/12/04 16:09:33;;;;;;;2.73;1.80;;;8.20;99.90;;;;;;5002429;28;20448;-71
2021/12/04 16:12:00;;;;;;;3.30;1.40;;;8.20;99.90;;;;;;5006142;28;20455;-71
2021/12/04 16:14:35;;;;;;;2.17;1.83;;;8.20;99.90;;;;;;4993851;28;20500;-72
2021/12/04 16:17:03;;;;;;;3.43;2.00;;;8.20;99.90;;;;;;4991762;28;20454;-72
2021/12/04 16:19:32;;;;;;;1.63;1.53;;;8.20;99.90;;;;;;4995922;28;20469;-72